createdAt,value
2023-06-11T00:00:16.881Z,16.36
2023-06-11T00:06:21.618Z,16.18
2023-06-11T00:12:23.819Z,16.26
2023-06-11T00:18:26.350Z,16.35
2023-06-11T00:24:28.371Z,16.15
2023-06-11T00:30:31.095Z,16.13
2023-06-11T00:36:34.325Z,16.09
2023-06-11T00:42:37.544Z,16.13
2023-06-11T00:48:39.837Z,16.07
2023-06-11T00:54:43.277Z,16.16
2023-06-11T01:00:55.704Z,16.18
2023-06-11T01:07:01.004Z,15.95
2023-06-11T01:13:02.964Z,16.04
2023-06-11T01:19:38.584Z,16.05
2023-06-11T01:25:45.391Z,15.89
2023-06-11T01:31:47.636Z,15.78
2023-06-11T01:37:56.639Z,15.73
2023-06-11T01:43:58.689Z,15.64
2023-06-11T01:50:00.738Z,15.58
2023-06-11T01:56:03.432Z,15.49
2023-06-11T02:02:05.602Z,15.45
2023-06-11T02:08:07.618Z,15.42
2023-06-11T02:14:09.608Z,15.40
2023-06-11T02:20:13.243Z,15.38
2023-06-11T02:26:15.256Z,15.39
2023-06-11T02:32:17.261Z,15.43
2023-06-11T02:38:19.211Z,15.32
2023-06-11T02:44:22.667Z,15.14
2023-06-11T02:50:24.695Z,15.20
2023-06-11T02:56:27.614Z,15.04
2023-06-11T03:02:29.616Z,15.05
2023-06-11T03:08:31.619Z,15.08
2023-06-11T03:14:33.595Z,15.06
2023-06-11T03:20:35.567Z,14.94
2023-06-11T03:26:37.544Z,14.90
2023-06-11T03:32:41.142Z,14.84
2023-06-11T03:38:43.164Z,14.81
2023-06-11T03:44:45.130Z,14.80
2023-06-11T03:50:47.137Z,14.87
2023-06-11T03:56:49.249Z,15.01
2023-06-11T04:02:51.504Z,15.11
2023-06-11T04:08:53.684Z,15.26
2023-06-11T04:14:55.911Z,15.47
2023-06-11T04:20:58.038Z,15.63
2023-06-11T04:27:00.896Z,15.95
2023-06-11T04:33:05.670Z,16.21
2023-06-11T04:39:09.073Z,16.45
2023-06-11T04:45:12.483Z,16.65
2023-06-11T04:51:17.781Z,16.73
2023-06-11T04:57:19.761Z,16.83
2023-06-11T05:03:23.038Z,16.98
2023-06-11T05:09:25.456Z,17.20
2023-06-11T05:15:27.636Z,17.41
2023-06-11T05:21:29.691Z,17.64
2023-06-11T05:27:32.921Z,17.92
2023-06-11T05:33:34.912Z,18.14
2023-06-11T05:39:36.925Z,18.69
2023-06-11T05:45:50.958Z,18.74
2023-06-11T05:51:53.559Z,19.08
2023-06-11T05:57:55.795Z,19.48
2023-06-11T06:03:57.879Z,19.81
2023-06-11T06:09:59.980Z,20.50
2023-06-11T06:16:01.988Z,20.74
2023-06-11T06:22:05.277Z,21.11
2023-06-11T06:28:07.258Z,21.54
2023-06-11T06:34:09.836Z,21.97
2023-06-11T06:40:13.487Z,22.34
2023-06-11T06:46:15.613Z,22.54
2023-06-11T06:52:17.580Z,22.99
2023-06-11T06:58:19.602Z,23.47
2023-06-11T07:04:21.581Z,23.49
2023-06-11T07:10:23.626Z,23.84
2023-06-11T07:16:25.685Z,24.39
2023-06-11T07:22:27.733Z,24.80
2023-06-11T07:28:29.684Z,24.91
2023-06-11T07:34:31.722Z,25.39
2023-06-11T07:40:33.694Z,25.89
2023-06-11T07:46:35.734Z,26.55
2023-06-11T07:52:37.895Z,26.89
2023-06-11T07:58:39.828Z,27.32
2023-06-11T08:04:42.257Z,27.86
2023-06-11T08:10:46.820Z,27.92
2023-06-11T08:16:49.127Z,28.32
2023-06-11T08:22:51.254Z,28.69
2023-06-11T08:28:53.547Z,28.83
2023-06-11T08:34:55.888Z,29.24
2023-06-11T08:40:58.286Z,29.29
2023-06-11T08:47:04.022Z,29.16
2023-06-11T08:53:07.736Z,29.52
2023-06-11T08:59:09.991Z,29.87
2023-06-11T09:05:12.779Z,30.14
2023-06-11T09:11:17.085Z,30.67
2023-06-11T09:17:19.119Z,30.96
2023-06-11T09:23:32.104Z,30.79
2023-06-11T09:29:35.889Z,31.70
2023-06-11T09:35:45.342Z,31.81
2023-06-11T09:41:52.042Z,32.10
2023-06-11T09:47:54.252Z,32.37
2023-06-11T09:53:57.129Z,32.44
2023-06-11T10:00:00.781Z,32.67
2023-06-11T10:06:08.530Z,33.00
2023-06-11T10:12:12.792Z,33.47
2023-06-11T10:18:16.644Z,33.28
2023-06-11T10:24:29.156Z,32.98
2023-06-11T10:30:32.674Z,32.83
2023-06-11T10:36:37.200Z,33.04
2023-06-11T10:42:41.880Z,33.15
2023-06-11T10:48:55.527Z,33.77
2023-06-11T10:54:58.713Z,33.38
2023-06-11T11:01:01.225Z,33.51
2023-06-11T11:07:12.402Z,32.91
2023-06-11T11:13:14.465Z,33.42
2023-06-11T11:19:17.020Z,33.37
2023-06-11T11:25:26.680Z,31.99
2023-06-11T11:31:28.737Z,32.98
2023-06-11T11:37:31.236Z,33.50
2023-06-11T11:43:42.780Z,33.68
2023-06-11T11:49:54.464Z,32.18
2023-06-11T11:56:05.977Z,32.25
2023-06-11T12:02:10.453Z,31.68
2023-06-11T12:08:12.414Z,31.81
2023-06-11T12:14:14.359Z,32.48
2023-06-11T12:20:16.350Z,32.77
2023-06-11T12:26:19.000Z,33.49
2023-06-11T12:32:26.369Z,34.02
2023-06-11T12:38:29.327Z,34.13
2023-06-11T12:44:32.307Z,35.41
2023-06-11T12:50:34.282Z,36.64
2023-06-11T12:56:36.235Z,37.07
2023-06-11T13:02:39.867Z,38.30
2023-06-11T13:08:41.900Z,38.40
2023-06-11T13:14:44.573Z,35.45
2023-06-11T13:20:47.182Z,35.28
2023-06-11T13:26:49.348Z,35.85
2023-06-11T13:32:52.336Z,34.25
2023-06-11T13:38:54.365Z,35.79
2023-06-11T13:44:56.669Z,37.35
2023-06-11T13:50:58.890Z,37.65
2023-06-11T13:57:01.942Z,38.57
2023-06-11T14:03:04.963Z,37.32
2023-06-11T14:09:07.226Z,38.11
2023-06-11T14:15:09.905Z,38.43
2023-06-11T14:21:11.837Z,38.56
2023-06-11T14:27:14.345Z,38.14
2023-06-11T14:33:16.335Z,38.79
2023-06-11T14:39:19.602Z,38.62
2023-06-11T14:45:21.555Z,37.72
2023-06-11T14:51:24.142Z,36.23
2023-06-11T14:57:26.722Z,37.03
2023-06-11T15:03:28.742Z,36.49
2023-06-11T15:09:31.080Z,34.44
2023-06-11T15:15:33.032Z,33.56
2023-06-11T15:21:34.972Z,35.12
2023-06-11T15:27:36.963Z,35.68
2023-06-11T15:33:39.198Z,35.85
2023-06-11T15:39:41.254Z,35.90
2023-06-11T15:45:43.266Z,34.19
2023-06-11T15:51:47.705Z,34.79
2023-06-11T15:57:51.448Z,34.42
2023-06-11T16:03:53.950Z,33.77
2023-06-11T16:09:55.997Z,34.13
2023-06-11T16:15:58.050Z,33.82
2023-06-11T16:22:00.173Z,33.71
2023-06-11T16:28:02.234Z,34.41
2023-06-11T16:34:04.216Z,35.22
2023-06-11T16:40:07.627Z,37.33
2023-06-11T16:46:09.637Z,38.20
2023-06-11T16:52:11.653Z,37.60
2023-06-11T16:58:13.593Z,38.10
2023-06-11T17:04:15.773Z,39.53
2023-06-11T17:10:17.854Z,40.15
2023-06-11T17:16:20.430Z,40.95
2023-06-11T17:22:24.229Z,41.22
2023-06-11T17:28:26.297Z,41.69
2023-06-11T17:34:28.291Z,41.64
2023-06-11T17:40:30.319Z,42.13
2023-06-11T17:46:32.677Z,41.46
2023-06-11T17:52:34.935Z,40.50
2023-06-11T17:58:40.780Z,39.75
2023-06-11T18:04:42.889Z,39.57
2023-06-11T18:10:44.947Z,38.88
2023-06-11T18:16:47.078Z,36.92
2023-06-11T18:22:49.214Z,37.30
2023-06-11T18:28:51.171Z,37.17
2023-06-11T18:34:53.099Z,36.64
2023-06-11T18:40:55.276Z,35.72
2023-06-11T18:47:01.936Z,34.16
2023-06-11T18:53:03.920Z,31.02
2023-06-11T18:59:05.926Z,29.02
2023-06-11T19:05:08.896Z,27.41
2023-06-11T19:11:10.925Z,26.04
2023-06-11T19:17:13.146Z,24.61
2023-06-11T19:23:21.689Z,23.74
2023-06-11T19:29:23.668Z,22.96
2023-06-11T19:35:26.105Z,22.46
2023-06-11T19:41:30.300Z,21.84
2023-06-11T19:47:33.709Z,21.35
2023-06-11T19:53:35.695Z,21.18
2023-06-11T19:59:40.820Z,21.11
2023-06-11T20:05:43.161Z,20.97
2023-06-11T20:11:53.729Z,20.75
2023-06-11T20:18:05.285Z,20.59
2023-06-11T20:24:08.206Z,20.14
2023-06-11T20:30:13.950Z,19.99
2023-06-11T20:36:17.664Z,20.05
2023-06-11T20:42:19.678Z,19.93
2023-06-11T20:48:22.112Z,19.75
2023-06-11T20:54:24.099Z,19.58
2023-06-11T21:00:26.188Z,19.45
2023-06-11T21:06:28.110Z,19.47
2023-06-11T21:12:30.016Z,19.29
2023-06-11T21:18:32.043Z,19.26
2023-06-11T21:24:34.049Z,19.14
2023-06-11T21:30:37.987Z,19.29
2023-06-11T21:36:39.947Z,19.32
2023-06-11T21:42:41.893Z,19.29
2023-06-11T21:48:46.020Z,19.24
2023-06-11T21:54:48.565Z,19.21
2023-06-11T22:00:50.518Z,19.32
2023-06-11T22:06:53.758Z,19.33
2023-06-11T22:13:09.550Z,18.99
2023-06-11T22:19:11.679Z,18.68
2023-06-11T22:25:14.516Z,18.57
2023-06-11T22:31:18.955Z,18.53
2023-06-11T22:37:20.989Z,18.24
2023-06-11T22:43:22.972Z,18.11
2023-06-11T22:49:29.394Z,17.86
2023-06-11T22:55:31.501Z,17.74
2023-06-11T23:01:33.910Z,17.49
2023-06-11T23:07:36.554Z,17.35
2023-06-11T23:13:38.496Z,17.10
2023-06-11T23:19:42.402Z,16.94
2023-06-11T23:25:45.584Z,16.85
2023-06-11T23:31:47.693Z,16.88
2023-06-11T23:37:52.543Z,16.91
2023-06-11T23:43:56.346Z,16.84
2023-06-11T23:49:59.318Z,16.68
2023-06-11T23:56:02.922Z,16.53
